LiveATC.Net - Listen to live air traffic control over the Internet! Contact LiveATC.net for advertising information


ICAO: SGAS  IATA: ASU   Airport: Silvio Pettirossi International Airport
City: Asuncion
Country: Paraguay   Continent: South America
SGAS METAR Weather: SGAS 240500Z 15004KT CAVOK 16/14 Q1018
SGAS Flight Activity (FlightAware)
SGAS Gnd/Twr/App
Feed Status: DOWN
Last heard on: 2014-04-24 05:46:03 (0 days 0 hours 2 minutes ago)
SGAS Gnd/Twr/App Audio Archives
FacilityFrequency
Asuncion Approach119.700
Asuncion Control128.400
Asuncion Ground121.900
Asuncion Tower118.100


NOTICE

Unauthorized use prohibited. See LiveATC.net Terms of Service


Find LiveATC Audio Streams


Airport/ARTCC Code

Frequency
(e.g., 124.400, 128.75)
Site-wide search

Browse LiveATC Feeds
LiveATC Coverage Map
Top 50 LiveATC Feeds
Bad Weather Areas

LiveATC FAQ
Offer a LiveATC Feed
Contact LiveATC.net
Press Inquiries

LiveATC on iPhone
LiveATC on Android

LiveATC Mobile
(Mobile browser)

ATC Audio Archives
Interesting Recordings

LiveATC Forums


Home Page
About LiveATC.net
Make a Donation
LiveATC Bookstore

Terms of Use
Privacy Policy

ATC/Radar Sites
U.S. ARTCC Freqs
Canadian Air Freqs

AIRMETs/SIGMETs

FAA Airport Status
Nat'l Airspace Status
Arrival Demand Charts


Server Software By:
Icecast.org
Liquidsoap

Please make a donation to help us keep growing!